Etusivu
METAR-TAF:

METAR-TAF

Lentoasemat :

Ämari, Viro

Ämarin lentotukikohta

Leveyspiiri: 59-15-44N, Pituuspiiri: 24-13-07E, korkeus merenpinnasta: 20 m

Tämänhetkinen sää

Tämä raportti tehtiin 46 minuuttia sitten, kello 10.50 UTC
Tuuli 8 kn pohjoisen/luoteesta, vaihdellen lännen ja pohjoisen välillä
Lämpötila 19°C
Kosteus 60%
Ilmanpaine 1005 hPa
Näkyvyys 10 km tai enemmän
Hajanaisia pilviä 2600 ft:n korkeudessa

METAR: EEEI 291050Z 33008KT 280V010 9999 SCT026 19/11 Q1005 NOSIG

Aika: 14:36 (11:36 UTC)

Sääennuste

Tämä raportti tehtiin 6 tuntia ja 6 minuuttia sitten, kello 05.30 UTC
Ennuste voimassa 29. päivästä klo 06 UTC - 30. päivään klo 06 UTC
Tuuli 11 kn lännestä/luoteesta
Näkyvyys 10 km tai enemmän
Muutamia pilviä 4500 ft:n korkeudessa
Tulossa
29. päivästä klo 21 UTC - 29. päivään klo 2 UTC
Tuuli 4 kn koillisesta

TAF: EEEI 290530Z 2906/3006 30011KT 9999 FEW045 BECMG 2921/292 04004KT

Säähavainnot ja -ennusteet yli 4000 lentoasemalta (METAR- ja TAF-raportit).

Käytössä olevat sääasemat on merkitty karttaan keltaisilla ja punaisilla pisteillä.

Aseta hiiri pisteen päälle nähdäksesi sääaseman nimen.

Klikkaa sitten nähdäksesi säähavainnot ja -ennusteet.

Kartan vaihtaminen: klikkaa mustalla rastilla varustettuja vihreitä pisteitä, niin voit zoomata sisään; viivalla varustettua vihreää pistettä, niin voit zoomata ulos tai vihreitä nuolia, niin pääset viereisille kartoille.


METAR-TAF: